Time;durP1;ratioP1;P1;durP2;ratioP2;P2;SDS_P1;SDS_P2;PMS_P1;PMS_P2;Temp;Humidity;BMP_temperature;BMP_pressure;BME280_temperature;BME280_humidity;BME280_pressure;Samples;Min_cycle;Max_cycle;Signal;HPM_P1;HPM_P2
2024/01/19 00:00:10;;;;;;;6.07;5.47;;;;;;;;;;5054709;28;20190;-80
2024/01/19 00:02:37;;;;;;;5.57;5.03;;;;;;;;;;5063380;28;20280;-78
2024/01/19 00:05:04;;;;;;;6.00;5.40;;;;;;;;;;5044780;28;20290;-79
2024/01/19 00:07:31;;;;;;;5.40;4.90;;;;;;;;;;5065819;28;20201;-80
2024/01/19 00:09:57;;;;;;;4.67;4.27;;;;;;;;;;5051023;28;20208;-79
2024/01/19 00:12:24;;;;;;;5.60;4.77;;;;;;;;;;5059742;28;20189;-78
2024/01/19 00:14:50;;;;;;;5.77;5.10;;;;;;;;;;5057201;28;20228;-78
2024/01/19 00:17:17;;;;;;;5.33;4.83;;;;;;;;;;5046911;28;20209;-80
2024/01/19 00:19:43;;;;;;;5.27;4.17;;;;;;;;;;5062059;28;20189;-79
2024/01/19 00:22:10;;;;;;;4.87;4.43;;;;;;;;;;5060261;28;20279;-79
2024/01/19 00:24:36;;;;;;;5.23;4.67;;;;;;;;;;5058695;28;20224;-79
2024/01/19 00:27:03;;;;;;;5.00;4.50;;;;;;;;;;5061032;28;20232;-78
2024/01/19 00:29:30;;;;;;;4.93;4.43;;;;;;;;;;5053386;28;20240;-80
2024/01/19 00:31:57;;;;;;;5.00;4.50;;;;;;;;;;5049887;28;20204;-79
2024/01/19 00:34:23;;;;;;;5.40;4.53;;;;;;;;;;5056546;28;20236;-79
2024/01/19 00:36:50;;;;;;;5.57;4.80;;;;;;;;;;5056935;28;20228;-80
2024/01/19 00:39:17;;;;;;;5.13;4.60;;;;;;;;;;5046816;28;20596;-78
2024/01/19 00:41:43;;;;;;;5.03;4.33;;;;;;;;;;5054106;28;20189;-80
2024/01/19 00:44:10;;;;;;;5.07;4.03;;;;;;;;;;5058924;28;20735;-79
2024/01/19 00:46:37;;;;;;;5.23;4.50;;;;;;;;;;5051709;28;20221;-78
2024/01/19 00:49:03;;;;;;;6.07;4.43;;;;;;;;;;5049526;28;20216;-80
2024/01/19 00:51:30;;;;;;;4.73;4.23;;;;;;;;;;5055475;28;20232;-77
2024/01/19 00:53:57;;;;;;;5.27;4.70;;;;;;;;;;5056611;28;20280;-79
2024/01/19 00:56:23;;;;;;;4.50;4.10;;;;;;;;;;5061423;28;20189;-79
2024/01/19 00:58:50;;;;;;;5.27;4.37;;;;;;;;;;5057951;28;20221;-78
2024/01/19 01:01:17;;;;;;;4.90;4.40;;;;;;;;;;5057198;28;20201;-77
2024/01/19 01:03:43;;;;;;;4.87;4.27;;;;;;;;;;5056309;28;20189;-77
2024/01/19 01:06:10;;;;;;;4.80;4.23;;;;;;;;;;5052368;28;20281;-77
2024/01/19 01:08:37;;;;;;;5.10;4.23;;;;;;;;;;5051418;28;20205;-78
2024/01/19 01:11:06;;;;;;;6.40;4.50;;;;;;;;;;5060155;28;20267;-78
2024/01/19 01:13:33;;;;;;;5.33;4.40;;;;;;;;;;5057353;28;20237;-80
2024/01/19 01:16:00;;;;;;;5.73;4.30;;;;;;;;;;5062408;28;20301;-78
2024/01/19 01:18:27;;;;;;;4.87;4.37;;;;;;;;;;5048630;28;20630;-79
2024/01/19 01:20:54;;;;;;;5.03;4.40;;;;;;;;;;5054178;28;20999;-79
2024/01/19 01:23:21;;;;;;;5.70;4.60;;;;;;;;;;5043550;28;20204;-79
2024/01/19 01:25:47;;;;;;;7.00;5.03;;;;;;;;;;5044482;28;20189;-79
2024/01/19 01:28:14;;;;;;;5.40;4.83;;;;;;;;;;5051389;28;20193;-79
2024/01/19 01:30:41;;;;;;;6.83;4.93;;;;;;;;;;5051161;28;20194;-80
2024/01/19 01:33:08;;;;;;;5.20;4.70;;;;;;;;;;5058148;28;20228;-79
2024/01/19 01:35:35;;;;;;;4.27;3.87;;;;;;;;;;5052523;28;20213;-80
2024/01/19 01:38:03;;;;;;;5.30;4.80;;;;;;;;;;5054758;28;20214;-80
2024/01/19 01:40:30;;;;;;;5.53;4.27;;;;;;;;;;5055735;28;20198;-78
2024/01/19 01:42:57;;;;;;;5.50;4.40;;;;;;;;;;5051159;28;20200;-79
2024/01/19 01:45:24;;;;;;;5.07;3.57;;;;;;;;;;5044755;28;20293;-78
2024/01/19 01:47:50;;;;;;;6.10;4.13;;;;;;;;;;5049658;28;20255;-77
2024/01/19 01:50:17;;;;;;;6.00;4.30;;;;;;;;;;5059687;28;20225;-79
2024/01/19 01:52:45;;;;;;;4.80;4.07;;;;;;;;;;5058235;28;20696;-78
2024/01/19 01:55:12;;;;;;;5.23;4.00;;;;;;;;;;5041588;28;20217;-78
2024/01/19 01:57:39;;;;;;;5.63;4.27;;;;;;;;;;5051919;28;20683;-80
2024/01/19 02:00:07;;;;;;;4.33;3.93;;;;;;;;;;5054309;28;20732;-77
2024/01/19 02:02:36;;;;;;;5.80;4.17;;;;;;;;;;5043512;28;20198;-77
2024/01/19 02:05:03;;;;;;;4.23;3.80;;;;;;;;;;5055269;28;20200;-77
2024/01/19 02:07:30;;;;;;;5.73;3.63;;;;;;;;;;5060793;28;20280;-76
2024/01/19 02:09:57;;;;;;;5.23;4.13;;;;;;;;;;5056969;28;20617;-76
2024/01/19 02:12:24;;;;;;;4.23;3.73;;;;;;;;;;5059611;28;20221;-79
2024/01/19 02:14:51;;;;;;;4.80;4.10;;;;;;;;;;5057997;28;20198;-79
2024/01/19 02:17:18;;;;;;;4.40;3.73;;;;;;;;;;5058558;28;20201;-77
2024/01/19 02:19:45;;;;;;;5.73;4.27;;;;;;;;;;5054696;28;20213;-79
2024/01/19 02:22:11;;;;;;;5.67;4.50;;;;;;;;;;5051975;28;20213;-77
2024/01/19 02:24:38;;;;;;;5.73;4.30;;;;;;;;;;5056587;28;20201;-78
2024/01/19 02:27:05;;;;;;;4.63;3.83;;;;;;;;;;5055550;28;20314;-79
2024/01/19 02:29:31;;;;;;;6.37;4.17;;;;;;;;;;5055182;28;20661;-80
2024/01/19 02:31:58;;;;;;;5.13;3.77;;;;;;;;;;5054939;28;20193;-79
2024/01/19 02:34:25;;;;;;;5.37;4.37;;;;;;;;;;5044472;28;20206;-79
2024/01/19 02:36:51;;;;;;;5.17;3.80;;;;;;;;;;5055522;28;20213;-79
2024/01/19 02:39:19;;;;;;;6.87;4.30;;;;;;;;;;5051443;28;20249;-79
2024/01/19 02:41:46;;;;;;;5.23;4.00;;;;;;;;;;5060161;28;20255;-80
2024/01/19 02:44:12;;;;;;;4.27;3.73;;;;;;;;;;5047946;28;20195;-79
2024/01/19 02:46:39;;;;;;;6.33;3.70;;;;;;;;;;5049893;28;20280;-80
2024/01/19 02:49:05;;;;;;;4.10;3.40;;;;;;;;;;5051053;28;20293;-80
2024/01/19 02:51:32;;;;;;;4.07;3.40;;;;;;;;;;5047730;28;20234;-79
2024/01/19 02:53:59;;;;;;;5.43;3.47;;;;;;;;;;5057510;28;20307;-81
2024/01/19 02:56:25;;;;;;;5.63;3.10;;;;;;;;;;5047306;28;20202;-83
2024/01/19 02:58:52;;;;;;;4.40;3.33;;;;;;;;;;5055290;28;20236;-79
2024/01/19 03:01:19;;;;;;;4.77;3.33;;;;;;;;;;5058463;28;20753;-79
2024/01/19 03:03:46;;;;;;;3.33;2.83;;;;;;;;;;5046359;28;20256;-81
2024/01/19 03:06:12;;;;;;;4.70;3.00;;;;;;;;;;5055960;28;20201;-79
2024/01/19 03:08:39;;;;;;;4.97;2.87;;;;;;;;;;5049910;28;20202;-80
2024/01/19 03:11:06;;;;;;;3.70;2.70;;;;;;;;;;5064527;28;20196;-79
2024/01/19 03:13:32;;;;;;;4.83;3.13;;;;;;;;;;5059254;28;20275;-80
2024/01/19 03:16:02;;;;;;;3.40;2.83;;;;;;;;;;5065109;28;20262;-80
2024/01/19 03:18:29;;;;;;;4.70;2.97;;;;;;;;;;5054162;28;20299;-80
2024/01/19 03:20:56;;;;;;;3.67;2.70;;;;;;;;;;5066886;28;20188;-80
2024/01/19 03:23:24;;;;;;;5.50;3.33;;;;;;;;;;5064531;28;20201;-79
2024/01/19 03:25:50;;;;;;;4.07;3.20;;;;;;;;;;5049706;28;20220;-80
2024/01/19 03:28:17;;;;;;;4.97;3.67;;;;;;;;;;5050968;28;20690;-80
2024/01/19 03:30:44;;;;;;;6.07;3.00;;;;;;;;;;5070413;28;20217;-80
2024/01/19 03:33:10;;;;;;;7.27;4.93;;;;;;;;;;5056760;28;20203;-80
2024/01/19 03:35:37;;;;;;;4.57;3.20;;;;;;;;;;5057808;28;20254;-79
2024/01/19 03:38:03;;;;;;;5.53;3.30;;;;;;;;;;5063285;28;20197;-78
2024/01/19 03:40:30;;;;;;;4.53;3.20;;;;;;;;;;5059767;28;20201;-79
2024/01/19 03:42:57;;;;;;;4.87;3.10;;;;;;;;;;5056394;28;20201;-83
2024/01/19 03:45:23;;;;;;;4.53;3.10;;;;;;;;;;5056835;28;20285;-82
2024/01/19 03:47:50;;;;;;;4.67;2.80;;;;;;;;;;5062042;28;20262;-80
2024/01/19 03:50:17;;;;;;;3.60;3.00;;;;;;;;;;5068957;28;20232;-81
2024/01/19 03:52:44;;;;;;;3.57;3.00;;;;;;;;;;5068818;28;20271;-80
2024/01/19 03:55:11;;;;;;;6.07;3.10;;;;;;;;;;5069521;28;20235;-81
2024/01/19 03:57:37;;;;;;;3.93;2.90;;;;;;;;;;5050880;28;20229;-80
2024/01/19 04:00:05;;;;;;;4.67;3.00;;;;;;;;;;5055377;28;20282;-79
2024/01/19 04:02:37;;;;;;;6.43;3.20;;;;;;;;;;5059011;28;20223;-80
2024/01/19 04:05:04;;;;;;;4.83;3.07;;;;;;;;;;5066107;28;20193;-80
2024/01/19 04:07:30;;;;;;;4.27;2.70;;;;;;;;;;5064978;28;20189;-81
2024/01/19 04:09:57;;;;;;;5.53;2.90;;;;;;;;;;5069931;28;20212;-80
2024/01/19 04:12:24;;;;;;;5.20;2.77;;;;;;;;;;5069066;28;20262;-81
2024/01/19 04:14:50;;;;;;;5.07;2.97;;;;;;;;;;5041527;28;20205;-81
2024/01/19 04:17:17;;;;;;;5.63;3.63;;;;;;;;;;5069565;28;20250;-79
2024/01/19 04:19:44;;;;;;;4.93;4.07;;;;;;;;;;5068457;28;20295;-78
2024/01/19 04:22:10;;;;;;;5.00;2.90;;;;;;;;;;5063726;28;20748;-82
2024/01/19 04:24:37;;;;;;;4.37;2.93;;;;;;;;;;5032292;28;20277;-80
2024/01/19 04:27:04;;;;;;;5.30;2.80;;;;;;;;;;5063112;28;21283;-79
2024/01/19 04:29:31;;;;;;;4.03;2.80;;;;;;;;;;5044852;28;20679;-81
2024/01/19 04:31:57;;;;;;;4.33;3.50;;;;;;;;;;5063716;28;20199;-79
2024/01/19 04:34:25;;;;;;;5.17;2.80;;;;;;;;;;5064133;28;20197;-81
2024/01/19 04:36:52;;;;;;;4.07;2.73;;;;;;;;;;5065166;28;20189;-81
2024/01/19 04:39:18;;;;;;;3.77;2.43;;;;;;;;;;5051656;28;20247;-79
2024/01/19 04:41:45;;;;;;;3.67;2.63;;;;;;;;;;5058649;28;20205;-82
2024/01/19 04:44:11;;;;;;;3.03;2.60;;;;;;;;;;5065690;28;20203;-78
2024/01/19 04:46:38;;;;;;;4.83;2.43;;;;;;;;;;5063311;28;20221;-80
2024/01/19 04:49:07;;;;;;;4.33;2.50;;;;;;;;;;5058379;28;20201;-80
2024/01/19 04:51:34;;;;;;;4.40;2.53;;;;;;;;;;5064114;28;20189;-79
2024/01/19 04:54:01;;;;;;;3.47;2.50;;;;;;;;;;5055939;28;20243;-79
2024/01/19 04:56:27;;;;;;;2.93;2.40;;;;;;;;;;5060474;28;20208;-79
2024/01/19 04:58:54;;;;;;;5.17;2.63;;;;;;;;;;5066312;28;20708;-79
2024/01/19 05:01:20;;;;;;;3.90;2.30;;;;;;;;;;5062483;28;20268;-80
2024/01/19 05:03:47;;;;;;;2.60;2.30;;;;;;;;;;5071571;28;20279;-79
2024/01/19 05:06:15;;;;;;;3.50;2.93;;;;;;;;;;5070364;28;20657;-80
2024/01/19 05:08:42;;;;;;;4.63;2.60;;;;;;;;;;5067667;28;20246;-79
2024/01/19 05:11:13;;;;;;;3.73;2.30;;;;;;;;;;5058173;28;20197;-80
2024/01/19 05:13:41;;;;;;;5.03;2.50;;;;;;;;;;5070352;28;20189;-80
2024/01/19 05:16:08;;;;;;;3.57;2.37;;;;;;;;;;5062849;28;20246;-80
2024/01/19 05:18:35;;;;;;;3.43;2.80;;;;;;;;;;5068230;28;20211;-79
2024/01/19 05:21:02;;;;;;;5.70;2.80;;;;;;;;;;5059653;28;20232;-79
2024/01/19 05:23:29;;;;;;;3.27;2.70;;;;;;;;;;5072144;28;20657;-79
2024/01/19 05:25:56;;;;;;;5.00;2.40;;;;;;;;;;5062510;28;20221;-80
2024/01/19 05:28:22;;;;;;;4.37;2.57;;;;;;;;;;5070914;28;20211;-79
2024/01/19 05:30:49;;;;;;;4.17;2.50;;;;;;;;;;5061773;28;20652;-80
2024/01/19 05:33:15;;;;;;;4.30;2.47;;;;;;;;;;5063949;28;20212;-80
2024/01/19 05:35:42;;;;;;;3.23;2.40;;;;;;;;;;5047910;28;20189;-78
2024/01/19 05:38:09;;;;;;;4.10;2.17;;;;;;;;;;5058363;28;20239;-79
2024/01/19 05:40:35;;;;;;;3.00;2.37;;;;;;;;;;5067382;28;20239;-79
2024/01/19 05:43:02;;;;;;;4.93;2.30;;;;;;;;;;5066874;28;20205;-79
2024/01/19 05:45:29;;;;;;;2.93;2.00;;;;;;;;;;5050998;28;20228;-80
2024/01/19 05:47:55;;;;;;;2.77;2.00;;;;;;;;;;5072286;28;20196;-80
2024/01/19 05:50:22;;;;;;;3.43;1.60;;;;;;;;;;5072260;28;20229;-79
2024/01/19 05:52:48;;;;;;;2.53;1.53;;;;;;;;;;5061231;28;20270;-80
2024/01/19 05:55:15;;;;;;;2.40;1.50;;;;;;;;;;5060308;28;20727;-79
2024/01/19 05:57:42;;;;;;;3.70;2.17;;;;;;;;;;5058571;28;20189;-78
2024/01/19 06:00:08;;;;;;;4.80;1.60;;;;;;;;;;5060095;28;20213;-78
2024/01/19 06:02:38;;;;;;;2.60;1.67;;;;;;;;;;5051543;28;20197;-79
2024/01/19 06:05:05;;;;;;;3.60;1.80;;;;;;;;;;5059130;28;20200;-79
2024/01/19 06:07:33;;;;;;;7.20;2.00;;;;;;;;;;5062717;28;20219;-79
2024/01/19 06:09:59;;;;;;;2.80;2.20;;;;;;;;;;5045256;28;20629;-79
2024/01/19 06:12:26;;;;;;;2.37;1.73;;;;;;;;;;5063886;28;20275;-78
2024/01/19 06:14:53;;;;;;;2.50;1.50;;;;;;;;;;5065687;28;20192;-80
2024/01/19 06:17:19;;;;;;;2.50;1.57;;;;;;;;;;5071427;28;20273;-79
2024/01/19 06:19:46;;;;;;;2.13;1.50;;;;;;;;;;5076626;28;20295;-79
2024/01/19 06:22:13;;;;;;;3.80;1.87;;;;;;;;;;5069844;28;20732;-80
2024/01/19 06:24:41;;;;;;;3.70;1.60;;;;;;;;;;5080624;28;20199;-82
2024/01/19 06:27:07;;;;;;;2.63;1.67;;;;;;;;;;5069107;28;20323;-80
2024/01/19 06:29:34;;;;;;;2.00;1.70;;;;;;;;;;5045326;28;20666;-79
2024/01/19 06:32:01;;;;;;;5.37;1.97;;;;;;;;;;5061115;28;20287;-81
2024/01/19 06:34:28;;;;;;;4.53;2.00;;;;;;;;;;5064658;28;20193;-79
2024/01/19 06:36:55;;;;;;;2.93;1.60;;;;;;;;;;5066000;28;20216;-80
2024/01/19 06:39:23;;;;;;;3.47;1.77;;;;;;;;;;5064528;28;20229;-81
2024/01/19 06:41:49;;;;;;;2.93;1.87;;;;;;;;;;5057064;28;20212;-80
2024/01/19 06:44:16;;;;;;;2.53;1.83;;;;;;;;;;5064386;28;20666;-79
2024/01/19 06:46:43;;;;;;;4.67;2.07;;;;;;;;;;5067795;28;20213;-80
2024/01/19 06:49:11;;;;;;;5.13;1.87;;;;;;;;;;5061904;28;20213;-79
2024/01/19 06:51:38;;;;;;;3.70;2.10;;;;;;;;;;5067183;28;20192;-80
2024/01/19 06:54:05;;;;;;;3.40;2.03;;;;;;;;;;5065558;28;20287;-79
2024/01/19 06:56:34;;;;;;;3.53;2.20;;;;;;;;;;5065635;28;20247;-81
2024/01/19 06:59:01;;;;;;;4.10;2.60;;;;;;;;;;5066639;28;20554;-79
2024/01/19 07:01:28;;;;;;;4.77;2.43;;;;;;;;;;5054542;28;20208;-79
2024/01/19 07:03:54;;;;;;;3.83;2.40;;;;;;;;;;5061752;28;20216;-80
2024/01/19 07:06:21;;;;;;;4.63;2.50;;;;;;;;;;5054462;28;20194;-79
2024/01/19 07:08:48;;;;;;;3.03;2.60;;;;;;;;;;5050524;28;20210;-80
2024/01/19 07:11:16;;;;;;;2.87;2.43;;;;;;;;;;5066742;28;20270;-80
2024/01/19 07:13:42;;;;;;;3.87;2.57;;;;;;;;;;5068489;28;20193;-79
2024/01/19 07:16:09;;;;;;;3.27;2.30;;;;;;;;;;5067325;28;20735;-79
2024/01/19 07:18:36;;;;;;;3.57;2.53;;;;;;;;;;5055781;28;20193;-80
2024/01/19 07:21:03;;;;;;;3.43;2.20;;;;;;;;;;5066804;28;20245;-80
2024/01/19 07:23:32;;;;;;;3.60;2.47;;;;;;;;;;5046148;28;20213;-80
2024/01/19 07:25:58;;;;;;;3.87;2.40;;;;;;;;;;5072057;28;20207;-79
2024/01/19 07:28:25;;;;;;;3.27;2.50;;;;;;;;;;5060173;28;20216;-81
2024/01/19 07:30:52;;;;;;;3.73;2.30;;;;;;;;;;5065499;28;20617;-79
2024/01/19 07:33:18;;;;;;;5.50;2.60;;;;;;;;;;5064420;28;20250;-80
2024/01/19 07:35:57;;;;;;;6.17;2.83;;;;;;;;;;5063234;28;20203;-79
2024/01/19 07:38:24;;;;;;;3.67;2.70;;;;;;;;;;5063504;28;20673;-79
2024/01/19 07:40:51;;;;;;;3.50;2.30;;;;;;;;;;5059874;28;20286;-79
2024/01/19 07:43:18;;;;;;;3.10;2.10;;;;;;;;;;5063870;28;20732;-80
2024/01/19 07:45:44;;;;;;;3.67;2.47;;;;;;;;;;5056262;28;20229;-81
2024/01/19 07:48:11;;;;;;;4.37;2.73;;;;;;;;;;5055330;28;20194;-79
2024/01/19 07:50:38;;;;;;;3.03;2.30;;;;;;;;;;5059164;28;20229;-80
2024/01/19 07:53:04;;;;;;;4.67;2.33;;;;;;;;;;5060143;28;20205;-80
2024/01/19 07:55:31;;;;;;;4.30;2.70;;;;;;;;;;5054239;28;20226;-79
2024/01/19 07:57:57;;;;;;;4.77;2.30;;;;;;;;;;5059627;28;20193;-78
2024/01/19 08:00:25;;;;;;;3.30;2.57;;;;;;;;;;5064557;28;20247;-80
2024/01/19 08:02:51;;;;;;;5.13;2.40;;;;;;;;;;5063654;28;20213;-80
2024/01/19 08:05:18;;;;;;;4.60;2.80;;;;;;;;;;5063705;28;20281;-79
2024/01/19 08:07:45;;;;;;;3.33;2.70;;;;;;;;;;5061220;28;20234;-79
2024/01/19 08:10:11;;;;;;;6.00;2.97;;;;;;;;;;5063403;28;20205;-81
2024/01/19 08:12:39;;;;;;;6.73;5.20;;;;;;;;;;5053604;28;20272;-80
2024/01/19 08:15:07;;;;;;;10.47;8.23;;;;;;;;;;5061961;28;20197;-80
2024/01/19 08:17:34;;;;;;;5.73;4.10;;;;;;;;;;5053646;28;20205;-79
2024/01/19 08:20:00;;;;;;;8.10;5.37;;;;;;;;;;5057762;28;20693;-80
2024/01/19 08:22:27;;;;;;;5.40;3.60;;;;;;;;;;5051675;28;20193;-82
2024/01/19 08:24:54;;;;;;;6.43;4.17;;;;;;;;;;5055340;28;20214;-80
2024/01/19 08:27:20;;;;;;;4.37;3.23;;;;;;;;;;5062593;28;20301;-78
2024/01/19 08:29:47;;;;;;;5.27;4.03;;;;;;;;;;5057094;28;20189;-79
2024/01/19 08:32:14;;;;;;;4.07;3.20;;;;;;;;;;5065191;28;20662;-80
2024/01/19 08:34:42;;;;;;;5.90;4.10;;;;;;;;;;5064312;28;20244;-80
2024/01/19 08:37:09;;;;;;;6.13;3.83;;;;;;;;;;5063453;28;20213;-81
2024/01/19 08:39:37;;;;;;;4.57;3.50;;;;;;;;;;5041735;28;20258;-80
2024/01/19 08:42:07;;;;;;;4.20;2.80;;;;;;;;;;5060694;28;20205;-79
2024/01/19 08:44:34;;;;;;;3.93;3.27;;;;;;;;;;5040221;28;20280;-79
2024/01/19 08:47:00;;;;;;;4.30;2.77;;;;;;;;;;5068595;28;20216;-79
2024/01/19 08:49:27;;;;;;;4.20;3.00;;;;;;;;;;5051065;28;20197;-80
2024/01/19 08:51:54;;;;;;;4.77;3.27;;;;;;;;;;5053876;28;20185;-81
2024/01/19 08:54:20;;;;;;;5.53;2.90;;;;;;;;;;5067346;28;20201;-81
2024/01/19 08:56:50;;;;;;;3.73;2.80;;;;;;;;;;5051832;28;20235;-78
2024/01/19 08:59:24;;;;;;;4.47;2.70;;;;;;;;;;5063572;28;20226;-79
2024/01/19 09:01:55;;;;;;;4.73;2.87;;;;;;;;;;5054138;28;20197;-82
2024/01/19 09:04:21;;;;;;;3.80;2.83;;;;;;;;;;5060213;28;20199;-79
2024/01/19 09:06:48;;;;;;;5.23;3.20;;;;;;;;;;5065000;28;20272;-80
2024/01/19 09:09:15;;;;;;;3.60;2.90;;;;;;;;;;5039980;28;20202;-79
2024/01/19 09:11:42;;;;;;;3.57;2.90;;;;;;;;;;5039998;28;20253;-81
2024/01/19 09:14:10;;;;;;;5.40;3.40;;;;;;;;;;5048488;28;20210;-80
2024/01/19 09:16:40;;;;;;;4.53;3.27;;;;;;;;;;5055511;28;20583;-79
2024/01/19 09:19:07;;;;;;;5.77;3.20;;;;;;;;;;5061807;28;20206;-79
2024/01/19 09:21:34;;;;;;;3.90;3.30;;;;;;;;;;5064004;28;20705;-79
2024/01/19 09:24:01;;;;;;;4.33;2.90;;;;;;;;;;5054950;28;20189;-80
2024/01/19 09:26:28;;;;;;;5.27;3.20;;;;;;;;;;5071977;28;20193;-80
2024/01/19 09:28:55;;;;;;;3.67;2.70;;;;;;;;;;5060433;28;20221;-81
2024/01/19 09:31:21;;;;;;;4.17;3.30;;;;;;;;;;5059642;28;20727;-80
2024/01/19 09:33:48;;;;;;;3.57;2.87;;;;;;;;;;5059388;28;20196;-80
2024/01/19 09:36:15;;;;;;;5.73;3.30;;;;;;;;;;5066981;28;20197;-79
2024/01/19 09:38:42;;;;;;;4.00;2.97;;;;;;;;;;5066832;28;20593;-79
2024/01/19 09:41:20;;;;;;;4.93;2.93;;;;;;;;;;5071481;28;20227;-81
2024/01/19 09:43:48;;;;;;;4.27;2.63;;;;;;;;;;5066046;28;20235;-81
2024/01/19 09:46:18;;;;;;;4.03;2.60;;;;;;;;;;5063896;28;20216;-79
2024/01/19 09:49:00;;;;;;;5.17;2.90;;;;;;;;;;5067449;28;20200;-81
2024/01/19 09:51:33;;;;;;;3.40;2.80;;;;;;;;;;5075383;28;20252;-79
2024/01/19 09:54:04;;;;;;;3.53;2.77;;;;;;;;;;5071525;28;20185;-79
2024/01/19 09:56:31;;;;;;;4.97;3.10;;;;;;;;;;5065928;28;20209;-81
2024/01/19 09:58:59;;;;;;;4.17;2.90;;;;;;;;;;5057357;28;20200;-81
2024/01/19 10:01:26;;;;;;;3.87;2.73;;;;;;;;;;5053669;28;20220;-81
2024/01/19 10:03:56;;;;;;;4.33;2.90;;;;;;;;;;5074976;28;20705;-79
2024/01/19 10:06:24;;;;;;;4.13;2.77;;;;;;;;;;5049662;28;20202;-80
2024/01/19 10:08:53;;;;;;;4.67;2.80;;;;;;;;;;5062851;28;20622;-80
2024/01/19 10:11:21;;;;;;;3.83;2.77;;;;;;;;;;5072766;28;20266;-81
2024/01/19 10:13:47;;;;;;;3.50;2.60;;;;;;;;;;5060883;28;20276;-80
2024/01/19 10:16:14;;;;;;;4.93;2.80;;;;;;;;;;5072226;28;20194;-81
2024/01/19 10:18:41;;;;;;;3.07;2.60;;;;;;;;;;5072168;28;20213;-79
2024/01/19 10:21:10;;;;;;;4.13;2.70;;;;;;;;;;5062295;28;20228;-80
2024/01/19 10:23:41;;;;;;;4.40;2.67;;;;;;;;;;5066857;28;20201;-80
2024/01/19 10:26:12;;;;;;;2.97;2.20;;;;;;;;;;5074931;28;20189;-79
2024/01/19 10:28:40;;;;;;;4.00;2.80;;;;;;;;;;5056953;28;20194;-78
2024/01/19 10:31:17;;;;;;;4.57;2.57;;;;;;;;;;5054164;28;20237;-80
2024/01/19 10:33:51;;;;;;;3.73;2.60;;;;;;;;;;5060640;28;20201;-80
2024/01/19 10:36:18;;;;;;;4.43;2.60;;;;;;;;;;5054539;28;20573;-79
2024/01/19 10:38:45;;;;;;;4.03;2.57;;;;;;;;;;5063058;28;20196;-80
2024/01/19 10:41:15;;;;;;;4.07;2.70;;;;;;;;;;5057392;28;20233;-80
2024/01/19 10:43:42;;;;;;;3.47;2.67;;;;;;;;;;5068529;28;20221;-79
2024/01/19 10:46:19;;;;;;;4.07;2.40;;;;;;;;;;5039934;28;20296;-81
2024/01/19 10:48:50;;;;;;;4.27;2.70;;;;;;;;;;5060384;28;21087;-80
2024/01/19 10:51:20;;;;;;;4.00;2.70;;;;;;;;;;5064166;28;20236;-79
2024/01/19 10:53:49;;;;;;;3.47;2.67;;;;;;;;;;5063229;28;20280;-79
2024/01/19 10:56:21;;;;;;;4.50;2.40;;;;;;;;;;5060013;28;20295;-79
2024/01/19 10:58:48;;;;;;;4.30;2.40;;;;;;;;;;5045484;28;20193;-79
2024/01/19 11:01:16;;;;;;;3.63;2.50;;;;;;;;;;5042422;28;20298;-81
2024/01/19 11:03:43;;;;;;;3.20;2.90;;;;;;;;;;5050906;28;20206;-78
2024/01/19 11:06:10;;;;;;;4.20;2.80;;;;;;;;;;5054972;28;20654;-82
2024/01/19 11:08:38;;;;;;;4.00;2.70;;;;;;;;;;5056680;28;20205;-82
2024/01/19 11:11:05;;;;;;;3.33;2.60;;;;;;;;;;5051591;28;20247;-80
2024/01/19 11:13:36;;;;;;;3.73;3.07;;;;;;;;;;5060508;28;20665;-80
2024/01/19 11:16:06;;;;;;;3.73;2.80;;;;;;;;;;5054736;28;20189;-80
2024/01/19 11:18:33;;;;;;;5.37;3.00;;;;;;;;;;5057379;28;20216;-81
2024/01/19 11:21:00;;;;;;;4.83;3.47;;;;;;;;;;5065054;28;20245;-79
2024/01/19 11:23:26;;;;;;;3.50;3.10;;;;;;;;;;5050294;28;20257;-82
2024/01/19 11:26:08;;;;;;;4.17;3.43;;;;;;;;;;5056848;28;20201;-80
2024/01/19 11:28:38;;;;;;;3.87;3.10;;;;;;;;;;5056482;28;20213;-80
2024/01/19 11:31:24;;;;;;;4.23;3.23;;;;;;;;;;5062120;28;20259;-79
2024/01/19 11:33:53;;;;;;;4.80;3.43;;;;;;;;;;5064338;28;20665;-78
2024/01/19 11:36:42;;;;;;;6.30;3.70;;;;;;;;;;5064797;28;20198;-79
2024/01/19 11:39:09;;;;;;;4.00;3.30;;;;;;;;;;5070810;28;20193;-81
2024/01/19 11:41:37;;;;;;;3.83;3.20;;;;;;;;;;5066695;28;20217;-80
2024/01/19 11:44:05;;;;;;;4.47;2.83;;;;;;;;;;5046633;28;20204;-80
2024/01/19 11:46:45;;;;;;;5.30;3.87;;;;;;;;;;5060602;28;20223;-80
2024/01/19 11:49:30;;;;;;;4.33;3.20;;;;;;;;;;5049317;28;20238;-81
2024/01/19 11:51:57;;;;;;;4.07;3.43;;;;;;;;;;5054061;28;20205;-79
2024/01/19 11:54:32;;;;;;;4.90;3.83;;;;;;;;;;5059804;28;20201;-79
2024/01/19 11:57:17;;;;;;;5.43;3.57;;;;;;;;;;5058839;28;20733;-80
2024/01/19 11:59:44;;;;;;;4.80;3.37;;;;;;;;;;5056864;28;20282;-82
2024/01/19 12:02:20;;;;;;;4.10;3.30;;;;;;;;;;5056983;28;20221;-82
2024/01/19 12:04:47;;;;;;;4.37;3.60;;;;;;;;;;5039721;28;20209;-80
2024/01/19 12:07:18;;;;;;;4.60;3.50;;;;;;;;;;5048191;28;20711;-79
2024/01/19 12:09:45;;;;;;;5.63;3.53;;;;;;;;;;5063516;28;20189;-78
2024/01/19 12:12:11;;;;;;;4.60;3.33;;;;;;;;;;5050016;28;20580;-79
2024/01/19 12:14:38;;;;;;;4.43;3.43;;;;;;;;;;5055599;28;20251;-82
2024/01/19 12:17:05;;;;;;;4.83;3.43;;;;;;;;;;5069925;28;20203;-80
2024/01/19 12:19:32;;;;;;;5.53;4.00;;;;;;;;;;5069543;28;20623;-80
2024/01/19 12:22:00;;;;;;;4.43;3.90;;;;;;;;;;5060116;28;20299;-79
2024/01/19 12:24:27;;;;;;;7.03;3.80;;;;;;;;;;5049037;28;20198;-79
2024/01/19 12:26:54;;;;;;;7.90;4.13;;;;;;;;;;5062027;28;20251;-82
2024/01/19 12:29:28;;;;;;;6.37;3.87;;;;;;;;;;5058567;28;20661;-78
2024/01/19 12:32:07;;;;;;;4.87;3.67;;;;;;;;;;5063808;28;20748;-80
2024/01/19 12:34:34;;;;;;;6.27;3.70;;;;;;;;;;5057269;28;20237;-80
2024/01/19 12:37:01;;;;;;;4.70;3.80;;;;;;;;;;5058395;28;20212;-81
2024/01/19 12:39:27;;;;;;;4.80;3.67;;;;;;;;;;5044017;28;20254;-79
2024/01/19 12:41:58;;;;;;;4.10;3.67;;;;;;;;;;5058170;28;20282;-80
2024/01/19 12:44:25;;;;;;;6.37;3.80;;;;;;;;;;5064029;28;20271;-83
2024/01/19 12:46:53;;;;;;;4.73;4.00;;;;;;;;;;5063942;28;20766;-81
2024/01/19 12:49:19;;;;;;;4.83;3.80;;;;;;;;;;5064889;28;20192;-80
2024/01/19 12:51:48;;;;;;;5.73;3.40;;;;;;;;;;5040440;28;20201;-81
2024/01/19 12:54:17;;;;;;;4.57;3.83;;;;;;;;;;5070542;28;20345;-80
2024/01/19 12:56:48;;;;;;;6.70;3.90;;;;;;;;;;5070318;28;20653;-80
2024/01/19 12:59:16;;;;;;;3.83;3.43;;;;;;;;;;5061769;28;20205;-81
2024/01/19 13:01:43;;;;;;;4.50;4.03;;;;;;;;;;5043238;28;20756;-81
2024/01/19 13:04:11;;;;;;;5.07;3.73;;;;;;;;;;5061213;28;20220;-81
2024/01/19 13:06:41;;;;;;;4.23;3.90;;;;;;;;;;5053618;28;20193;-83
2024/01/19 13:09:09;;;;;;;5.27;3.90;;;;;;;;;;5054320;28;20200;-80
2024/01/19 13:11:36;;;;;;;4.93;4.43;;;;;;;;;;5063114;28;20662;-78
2024/01/19 13:14:03;;;;;;;5.40;4.20;;;;;;;;;;5071704;28;20227;-78
2024/01/19 13:16:30;;;;;;;6.03;4.10;;;;;;;;;;5067755;28;20203;-80
2024/01/19 13:19:04;;;;;;;5.20;4.17;;;;;;;;;;5069919;28;20250;-79
2024/01/19 13:21:32;;;;;;;4.70;4.13;;;;;;;;;;5059960;28;20220;-79
2024/01/19 13:23:59;;;;;;;4.67;4.00;;;;;;;;;;5048033;28;20201;-80
2024/01/19 13:26:27;;;;;;;4.83;3.87;;;;;;;;;;5048915;28;20225;-82
2024/01/19 13:28:53;;;;;;;4.63;3.87;;;;;;;;;;5065594;28;20719;-80
2024/01/19 13:31:20;;;;;;;5.73;4.07;;;;;;;;;;5036886;28;20194;-80
2024/01/19 13:33:47;;;;;;;4.80;4.03;;;;;;;;;;5035371;28;20244;-80
2024/01/19 13:36:15;;;;;;;8.23;4.50;;;;;;;;;;5053099;28;20205;-80
2024/01/19 13:38:42;;;;;;;4.13;3.73;;;;;;;;;;5056625;28;20242;-80
2024/01/19 13:41:09;;;;;;;5.00;4.03;;;;;;;;;;5054862;28;20249;-80
2024/01/19 13:43:36;;;;;;;4.27;3.83;;;;;;;;;;5053157;28;20196;-80
2024/01/19 13:46:03;;;;;;;5.23;4.23;;;;;;;;;;5055460;28;20309;-82
2024/01/19 13:48:30;;;;;;;4.53;3.80;;;;;;;;;;5050822;28;20246;-80
2024/01/19 13:50:57;;;;;;;4.13;3.70;;;;;;;;;;5052261;28;20255;-78
2024/01/19 13:53:24;;;;;;;7.30;4.07;;;;;;;;;;5051077;28;20240;-78
2024/01/19 13:55:51;;;;;;;6.03;4.30;;;;;;;;;;5052525;28;20244;-80
2024/01/19 13:58:17;;;;;;;4.60;4.07;;;;;;;;;;5055201;28;20206;-79
2024/01/19 14:00:44;;;;;;;5.20;3.97;;;;;;;;;;5052808;28;20213;-81
2024/01/19 14:03:12;;;;;;;5.43;4.40;;;;;;;;;;5052453;28;20223;-80
2024/01/19 14:05:39;;;;;;;9.33;6.67;;;;;;;;;;5058848;28;20199;-81
2024/01/19 14:08:07;;;;;;;6.67;5.77;;;;;;;;;;5065714;28;20213;-81
2024/01/19 14:10:34;;;;;;;6.00;4.90;;;;;;;;;;5039978;28;20212;-81
2024/01/19 14:13:01;;;;;;;5.40;4.50;;;;;;;;;;5052971;28;20213;-80
2024/01/19 14:15:31;;;;;;;5.47;4.93;;;;;;;;;;5058697;28;20215;-82
2024/01/19 14:18:07;;;;;;;8.30;5.60;;;;;;;;;;5060847;28;20215;-80
2024/01/19 14:20:34;;;;;;;5.83;5.23;;;;;;;;;;5050491;28;20193;-80
2024/01/19 14:23:01;;;;;;;5.97;5.00;;;;;;;;;;5055663;28;20218;-78
2024/01/19 14:25:27;;;;;;;5.67;4.70;;;;;;;;;;5037519;28;20269;-81
2024/01/19 14:27:54;;;;;;;6.83;4.87;;;;;;;;;;5056802;28;20198;-78
2024/01/19 14:30:20;;;;;;;6.87;6.17;;;;;;;;;;5056363;28;20649;-80
2024/01/19 14:32:49;;;;;;;6.33;4.80;;;;;;;;;;5065426;28;20193;-80
2024/01/19 14:35:16;;;;;;;5.57;4.60;;;;;;;;;;5053301;28;20268;-80
2024/01/19 14:37:43;;;;;;;5.60;4.93;;;;;;;;;;5066968;28;20193;-79
2024/01/19 14:40:09;;;;;;;5.70;4.67;;;;;;;;;;5069897;28;20189;-80
2024/01/19 14:42:36;;;;;;;5.03;4.53;;;;;;;;;;5057362;28;20224;-79
2024/01/19 14:45:04;;;;;;;6.17;4.70;;;;;;;;;;5061051;28;20266;-80